Surfing & Ski Diseño Web|Fotos|Meteorología|Comentarios

Tike 10 es un laboratorio Web, dedicado a la exposición de fotografías y a los lenguajes HTML + PHP
MB+
Drive
Bin | PHP
*
Galerias
+/-
Horas de trabajo

Tike10 LAB | Fotos a través del tiempo - 2005

Bienvenidos. Tike10 es un laboratorio Web dedicado a la exposición de fotografías y a los lenguajes HTML y PHP.

Image

El tema principal son las fotos de Surf, acompañadas durante los inviernos de Asturias con fotografías de los deportes blancos, más generalizado el Ski.

Fotos de paisajes y montañas, arquitectura, fotografías panorámicas, deportes, retratos y fotografía en fiestas, son los temas tocados desde este Web Site.

https://www.tike10.com/fotos/


Lenguajes y Seguridad en la Red

Nuestros diseños de páginas Web están desarrollados a la medida de las necesidades de nuestros clientes. Trabajamos como “freelance” desde el año 2005.
Servidores Cloud de última generación. Siempre intentamos que la inversión de nuestros clientes les retorne lo más rápido posible, para ello ofrecemos un servicio de hosting moderno y competente a nivel global, con las mejores y más modernas herramientas para interactuar a través de las páginas Web.
Potencia, privacidad y seguridad a buen precio, servidores alojados en España dentro de un centro de datos de primera categoría mundial.

Meteorología Surf & Ski

Datos reales de las estaciones meteorológicas del Estado.

Otro tema importante que desarrollamos en Tike 10 es la Meteorología, presentamos datos reales de las estaciones meteorológicas del Estado: https://www.aemet.es

Recogemos datos de la temperatura, la velocidad y dirección del viento, así como de las precipitaciones y la humedad relativa. En otros casos altura de las olas, los periodos, y la dirección de la marejada. | Meteorología

Fecha, hora, temperatura, viento dirección y velocidad, humedad y presión.

  • 15-12-2018 10:00:00 | 14.80°C | Nordeste |3.00 km/h | 78.00% | 1001.00 hPa
  • 15-12-2018 09:00:00 | 16.70°C | Oeste |18.00 km/h | 66.00% | 1001.20 hPa
  • 15-12-2018 08:00:00 | 15.10°C | Sudoeste |3.00 km/h | 75.00% | 1001.20 hPa
  • 15-12-2018 07:00:00 | 16.20°C | Sudoeste |6.00 km/h | 69.00% | 1001.70 hPa
  • 15-12-2018 06:00:00 | 16.10°C | Sudoeste |12.00 km/h | 69.00% | 1001.60 hPa
  • 15-12-2018 05:00:00 | 15.60°C | Sudoeste |16.00 km/h | 72.00% | 1002.00 hPa
  • 15-12-2018 04:00:00 | 15.30°C | Sudoeste |19.00 km/h | 73.00% | 1002.90 hPa
  • 15-12-2018 03:00:00 | 14.20°C | Sudoeste |7.00 km/h | 77.00% | 1003.40 hPa
  • 15-12-2018 02:00:00 | 13.50°C | Sudoeste |14.00 km/h | 77.00% | 1003.60 hPa
  • 15-12-2018 01:00:00 | 12.00°C | Sudoeste |9.00 km/h | 81.00% | 1004.20 hPa
  • 15-12-2018 00:00:00 | 12.60°C | Sudoeste |12.00 km/h | 79.00% | 1004.20 hPa
  • 14-12-2018 23:00:00 | 11.40°C | Sur |8.00 km/h | 86.00% | 1005.00 hPa
  • 14-12-2018 22:00:00 | 11.20°C | Sur |13.00 km/h | 89.00% | 1005.40 hPa
  • 14-12-2018 21:00:00 | 10.90°C | Sur |11.00 km/h | 83.00% | 1006.10 hPa
  • 14-12-2018 20:00:00 | 12.50°C | Sudoeste |13.00 km/h | 64.00% | 1006.40 hPa
  • 14-12-2018 19:00:00 | 12.50°C | Sudoeste |14.00 km/h | 65.00% | 1006.40 hPa
  • 14-12-2018 18:00:00 | 10.70°C | Sur |9.00 km/h | 75.00% | 1006.70 hPa
  • 14-12-2018 17:00:00 | 12.90°C | Sudoeste |4.00 km/h | 66.00% | 1006.40 hPa
  • 14-12-2018 16:00:00 | 12.60°C | Sudoeste |13.00 km/h | 64.00% | 1006.60 hPa
  • 14-12-2018 15:00:00 | 13.10°C | Sudoeste |10.00 km/h | 63.00% | 1006.70 hPa
  • 14-12-2018 14:00:00 | 12.30°C | Sudoeste |10.00 km/h | 68.00% | 1007.30 hPa
  • 14-12-2018 13:00:00 | 12.10°C | Sudoeste |12.00 km/h | 69.00% | 1008.20 hPa
  • 14-12-2018 12:00:00 | 10.90°C | Sudoeste |14.00 km/h | 72.00% | 1008.60 hPa
  • 14-12-2018 11:00:00 | 9.80°C | Sudoeste |12.00 km/h | 75.00% | 1008.10 hPa